| time (UTC) | temp C | wind direction | speed KPH | gust KPH | rain 1hr cm | rain 24hr cm | rain mn cm | humidity % | barometer mb |
| 20260503203035 | 13 | 0 | 1.6 | 8.0 | 0.00 | 0.38 | 0.38 | 72 | 1012.9 |
| 20260503202515 | 13 | 194 | 1.6 | 8.0 | 0.00 | 0.38 | 0.38 | 73 | 1012.9 |
| 20260503202015 | 13 | 0 | 1.6 | 8.0 | 0.00 | 0.38 | 0.38 | 73 | 1012.9 |
| 20260503201530 | 13 | 197 | 1.6 | 8.0 | 0.00 | 0.38 | 0.38 | 74 | 1012.8 |
| 20260503201014 | 13 | 175 | 1.6 | 8.0 | 0.00 | 0.38 | 0.38 | 74 | 1012.8 |
| 20260503200515 | 13 | 195 | 1.6 | 8.0 | 0.00 | 0.38 | 0.38 | 75 | 1012.8 |
| 20260503200032 | 13 | 203 | 1.6 | 8.0 | 0.00 | 0.38 | 0.38 | 76 | 1012.8 |
| 20260503195513 | 13 | 194 | 1.6 | 8.0 | 0.00 | 0.38 | 0.38 | 76 | 1012.8 |
| 20260503195017 | 13 | 199 | 1.6 | 6.4 | 0.00 | 0.38 | 0.38 | 75 | 1012.6 |
| 20260503194534 | 13 | 0 | 0.0 | 8.0 | 0.00 | 0.38 | 0.38 | 75 | 1012.4 |
| 20260503194018 | 13 | 0 | 0.0 | 8.0 | 0.00 | 0.38 | 0.38 | 75 | 1012.4 |
| 20260503193512 | 13 | 221 | 1.6 | 8.0 | 0.00 | 0.38 | 0.38 | 75 | 1012.3 |
| 20260503193043 | 14 | 210 | 0.0 | 6.4 | 0.00 | 0.38 | 0.38 | 74 | 1012.3 |
| 20260503192514 | 14 | 0 | 0.0 | 9.7 | 0.00 | 0.38 | 0.38 | 74 | 1012.3 |
| 20260503192015 | 14 | 0 | 0.0 | 9.7 | 0.00 | 0.38 | 0.38 | 74 | 1012.3 |
| 20260503191600 | 14 | 0 | 1.6 | 9.7 | 0.00 | 0.38 | 0.38 | 74 | 1012.2 |
| 20260503191015 | 15 | 202 | 1.6 | 6.4 | 0.00 | 0.38 | 0.38 | 74 | 1012.2 |
| 20260503190514 | 15 | 0 | 0.0 | 8.0 | 0.00 | 0.38 | 0.38 | 73 | 1012.2 |
| 20260503190034 | 15 | 0 | 1.6 | 12.9 | 0.00 | 0.38 | 0.38 | 73 | 1012.0 |
| 20260503185519 | 15 | 0 | 1.6 | 12.9 | 0.00 | 0.38 | 0.38 | 71 | 1011.9 |
| 20260503185014 | 15 | 238 | 6.4 | 12.9 | 0.00 | 0.38 | 0.38 | 71 | 1011.9 |
| 20260503184528 | 15 | 241 | 1.6 | 11.3 | 0.00 | 0.38 | 0.38 | 71 | 1011.9 |
| 20260503184014 | 15 | 250 | 3.2 | 11.3 | 0.00 | 0.38 | 0.38 | 71 | 1011.8 |
| 20260503183515 | 15 | 0 | 1.6 | 11.3 | 0.00 | 0.38 | 0.38 | 71 | 1011.9 |
| 20260503183030 | 15 | 248 | 1.6 | 14.5 | 0.00 | 0.38 | 0.38 | 70 | 1011.9 |
| 20260503182512 | 15 | 240 | 3.2 | 16.1 | 0.00 | 0.38 | 0.38 | 69 | 1012.0 |
| 20260503182013 | 15 | 250 | 3.2 | 16.1 | 0.00 | 0.38 | 0.38 | 68 | 1011.9 |
| 20260503181544 | 15 | 242 | 8.0 | 16.1 | 0.00 | 0.38 | 0.38 | 67 | 1011.8 |
| 20260503181014 | 15 | 260 | 8.0 | 14.5 | 0.00 | 0.38 | 0.38 | 67 | 1011.9 |
| 20260503180514 | 16 | 250 | 4.8 | 14.5 | 0.00 | 0.38 | 0.38 | 68 | 1011.8 |
| 20260503180033 | 16 | 237 | 1.6 | 14.5 | 0.00 | 0.38 | 0.38 | 67 | 1011.9 |
| 20260503175512 | 16 | 215 | 6.4 | 19.3 | 0.00 | 0.38 | 0.38 | 64 | 1011.9 |
| 20260503175016 | 16 | 261 | 6.4 | 19.3 | 0.00 | 0.38 | 0.38 | 64 | 1011.9 |
| 20260503174539 | 16 | 203 | 8.0 | 19.3 | 0.00 | 0.38 | 0.38 | 64 | 1011.8 |
| 20260503174017 | 17 | 240 | 9.7 | 25.7 | 0.00 | 0.38 | 0.38 | 63 | 1011.8 |
| 20260503173514 | 17 | 314 | 12.9 | 25.7 | 0.00 | 0.38 | 0.38 | 62 | 1011.8 |
| 20260503173030 | 17 | 228 | 11.3 | 20.9 | 0.00 | 0.38 | 0.38 | 61 | 1011.8 |
| 20260503172515 | 17 | 198 | 3.2 | 19.3 | 0.00 | 0.38 | 0.38 | 62 | 1011.8 |
| 20260503172016 | 17 | 280 | 11.3 | 22.5 | 0.00 | 0.38 | 0.38 | 62 | 1011.8 |
| 20260503171530 | 17 | 292 | 6.4 | 22.5 | 0.00 | 0.38 | 0.38 | 63 | 1011.9 |
| 20260503171014 | 17 | 248 | 6.4 | 20.9 | 0.00 | 0.38 | 0.38 | 65 | 1011.9 |
| 20260503170515 | 17 | 252 | 8.0 | 20.9 | 0.00 | 0.38 | 0.38 | 63 | 1012.0 |
| 20260503150511 | 18 | 237 | 4.8 | 27.4 | 0.00 | 0.71 | 0.38 | 62 | 1012.0 |
| 20260503131016 | 18 | 284 | 8.0 | 22.5 | 0.00 | 0.89 | 0.38 | 69 | 1012.4 |
| 20260503130514 | 18 | 103 | 9.7 | 22.5 | 0.00 | 0.89 | 0.38 | 67 | 1012.6 |
| 20260503110523 | 17 | 250 | 4.8 | 12.9 | 0.00 | 0.91 | 0.30 | 75 | 1013.9 |
| 20260503081540 | 12 | 0 | 0.0 | 1.6 | 0.00 | 1.40 | 0.30 | 92 | 1014.8 |
| 20260503081016 | 13 | 0 | 0.0 | 4.8 | 0.00 | 1.40 | 0.30 | 93 | 1014.9 |
| 20260503080515 | 12 | 0 | 0.0 | 4.8 | 0.00 | 1.40 | 0.30 | 93 | 1015.0 |
| 20260503072516 | 12 | 0 | 0.0 | 1.6 | 0.20 | 1.50 | 0.30 | 93 | 1014.5 |
| 20260503072016 | 11 | 0 | 0.0 | 1.6 | 0.30 | 1.50 | 0.30 | 93 | 1014.3 |
| 20260503071531 | 11 | 0 | 0.0 | 1.6 | 0.28 | 1.50 | 0.28 | 93 | 1014.5 |
| 20260503071015 | 11 | 0 | 0.0 | 1.6 | 0.28 | 1.50 | 0.28 | 93 | 1014.6 |
| 20260503070518 | 11 | 0 | 0.0 | 1.6 | 0.28 | 1.50 | 0.28 | 93 | 1014.6 |
| 20260503055016 | 11 | 0 | 0.0 | 1.6 | 0.00 | 1.40 | 0.00 | 93 | 1014.0 |
| 20260503054544 | 11 | 0 | 0.0 | 0.0 | 0.00 | 1.40 | 0.00 | 93 | 1014.0 |
| 20260503054017 | 11 | 0 | 0.0 | 1.6 | 0.00 | 1.40 | 0.00 | 93 | 1014.0 |
| 20260503053515 | 11 | 0 | 0.0 | 1.6 | 0.00 | 1.40 | 0.00 | 93 | 1014.0 |
| 20260503053032 | 11 | 0 | 0.0 | 1.6 | 0.00 | 1.40 | 0.00 | 93 | 1014.1 |
| 20260503052516 | 11 | 0 | 0.0 | 1.6 | 0.00 | 1.40 | 0.00 | 93 | 1014.2 |
| 20260503052016 | 11 | 0 | 0.0 | 4.8 | 0.00 | 1.40 | 0.00 | 93 | 1014.2 |
| 20260503051531 | 11 | 0 | 0.0 | 4.8 | 0.00 | 1.40 | 0.00 | 92 | 1014.1 |
| 20260503051016 | 11 | 0 | 1.6 | 4.8 | 0.00 | 1.40 | 0.00 | 92 | 1014.2 |
| 20260503050516 | 11 | 136 | 0.0 | 3.2 | 0.00 | 1.40 | 0.00 | 92 | 1014.2 |
| 20260503050035 | 11 | 0 | 0.0 | 0.0 | 0.00 | 1.40 | 0.00 | 92 | 1014.2 |
| 20260503045516 | 11 | 0 | 0.0 | 0.0 | 0.00 | 1.40 | 0.00 | 92 | 1014.3 |
| 20260503045017 | 11 | 0 | 0.0 | 0.0 | 0.00 | 1.40 | 0.00 | 92 | 1014.2 |
| 20260503044538 | 11 | 0 | 0.0 | 3.2 | 0.00 | 1.40 | 0.00 | 92 | 1014.2 |
| 20260503044013 | 11 | 0 | 0.0 | 3.2 | 0.00 | 1.40 | 0.00 | 92 | 1014.3 |
| 20260503043516 | 11 | 0 | 0.0 | 3.2 | 0.00 | 1.40 | 0.00 | 92 | 1014.3 |
| 20260503043042 | 11 | 0 | 0.0 | 4.8 | 0.00 | 1.40 | 0.00 | 92 | 1014.3 |
| 20260503042514 | 11 | 0 | 0.0 | 6.4 | 0.00 | 1.40 | 0.00 | 92 | 1014.2 |
| 20260503042016 | 11 | 0 | 0.0 | 11.3 | 0.00 | 1.40 | 0.00 | 92 | 1014.2 |
| 20260503041530 | 11 | 136 | 1.6 | 11.3 | 0.00 | 1.40 | 0.00 | 92 | 1014.3 |
| 20260503041017 | 11 | 136 | 4.8 | 11.3 | 0.00 | 1.40 | 0.00 | 92 | 1014.3 |
| 20260503040516 | 11 | 141 | 1.6 | 8.0 | 0.00 | 1.40 | 0.00 | 92 | 1014.3 |
| 20260503040032 | 11 | 144 | 1.6 | 6.4 | 0.00 | 1.40 | 0.00 | 92 | 1014.4 |
| 20260503035516 | 11 | 146 | 3.2 | 6.4 | 0.00 | 1.40 | 0.00 | 92 | 1014.3 |
| 20260503035015 | 11 | 144 | 3.2 | 6.4 | 0.00 | 1.40 | 0.00 | 92 | 1014.3 |
| 20260503034531 | 11 | 142 | 1.6 | 6.4 | 0.00 | 1.40 | 0.00 | 92 | 1014.4 |
| 20260503034016 | 11 | 145 | 0.0 | 4.8 | 0.00 | 1.40 | 0.00 | 92 | 1014.4 |
| 20260503033516 | 11 | 0 | 0.0 | 4.8 | 0.00 | 1.40 | 0.00 | 92 | 1014.6 |
| 20260503033031 | 11 | 145 | 0.0 | 4.8 | 0.00 | 1.40 | 0.00 | 92 | 1014.7 |
| 20260503032515 | 11 | 145 | 1.6 | 4.8 | 0.00 | 1.40 | 0.00 | 92 | 1014.7 |
| 20260503032014 | 11 | 0 | 1.6 | 4.8 | 0.00 | 1.40 | 0.00 | 92 | 1014.8 |
| 20260503031531 | 11 | 146 | 0.0 | 4.8 | 0.00 | 1.40 | 0.00 | 92 | 1014.9 |
| 20260503031016 | 11 | 146 | 0.0 | 4.8 | 0.00 | 1.40 | 0.00 | 92 | 1014.9 |
| 20260503030513 | 11 | 0 | 0.0 | 4.8 | 0.00 | 1.40 | 0.00 | 92 | 1015.0 |
| 20260503030036 | 11 | 146 | 0.0 | 4.8 | 0.00 | 1.40 | 0.00 | 92 | 1014.9 |
| 20260503025515 | 11 | 0 | 0.0 | 4.8 | 0.00 | 1.40 | 0.00 | 92 | 1014.8 |
| 20260503025013 | 11 | 0 | 0.0 | 4.8 | 0.00 | 1.40 | 0.00 | 92 | 1014.9 |
| 20260503024533 | 11 | 0 | 0.0 | 3.2 | 0.00 | 1.40 | 0.00 | 92 | 1015.0 |
| 20260503024016 | 11 | 146 | 0.0 | 1.6 | 0.00 | 1.40 | 0.00 | 92 | 1015.0 |
| 20260503023517 | 11 | 0 | 0.0 | 1.6 | 0.00 | 1.40 | 0.00 | 92 | 1015.0 |
| 20260503023035 | 11 | 0 | 0.0 | 6.4 | 0.00 | 1.40 | 0.00 | 92 | 1015.1 |
| 20260503022515 | 11 | 0 | 1.6 | 6.4 | 0.00 | 1.40 | 0.00 | 92 | 1015.0 |
| 20260503022013 | 11 | 0 | 1.6 | 4.8 | 0.00 | 1.40 | 0.00 | 92 | 1015.1 |
| 20260503021529 | 11 | 0 | 0.0 | 4.8 | 0.00 | 1.40 | 0.00 | 92 | 1015.1 |
| 20260503021014 | 11 | 0 | 0.0 | 4.8 | 0.00 | 1.40 | 0.00 | 92 | 1015.0 |
| 20260503020516 | 11 | 0 | 0.0 | 4.8 | 0.00 | 1.40 | 0.00 | 92 | 1015.1 |
| 20260503020032 | 11 | 151 | 0.0 | 4.8 | 0.00 | 1.40 | 0.00 | 92 | 1015.0 |
| 20260503015521 | 11 | 0 | 0.0 | 0.0 | 0.00 | 1.40 | 0.00 | 92 | 1015.0 |
| 20260503015015 | 12 | 0 | 0.0 | 0.0 | 0.00 | 1.40 | 0.00 | 92 | 1015.0 |
| 20260503014530 | 12 | 0 | 0.0 | 0.0 | 0.00 | 1.40 | 0.00 | 92 | 1015.0 |
| 20260503014017 | 12 | 0 | 0.0 | 0.0 | 0.00 | 1.40 | 0.00 | 92 | 1015.1 |
| 20260503013516 | 12 | 0 | 0.0 | 0.0 | 0.00 | 1.40 | 0.00 | 92 | 1015.1 |
| 20260503013039 | 12 | 0 | 0.0 | 0.0 | 0.00 | 1.40 | 0.00 | 92 | 1015.1 |
| 20260503012515 | 12 | 0 | 0.0 | 0.0 | 0.00 | 1.40 | 0.00 | 92 | 1015.2 |
| 20260503012016 | 12 | 0 | 0.0 | 0.0 | 0.00 | 1.40 | 0.00 | 92 | 1015.1 |
| 20260503011531 | 12 | 0 | 0.0 | 0.0 | 0.00 | 1.40 | 0.00 | 92 | 1015.2 |
| 20260503011015 | 12 | 0 | 0.0 | 0.0 | 0.00 | 1.40 | 0.00 | 92 | 1015.4 |
| 20260503010516 | 12 | 0 | 0.0 | 0.0 | 0.00 | 1.40 | 0.00 | 92 | 1015.4 |
| 20260503010031 | 12 | 0 | 0.0 | 4.8 | 0.00 | 1.40 | 0.00 | 92 | 1015.5 |
| 20260503005513 | 12 | 0 | 0.0 | 4.8 | 0.00 | 1.40 | 0.00 | 92 | 1015.6 |
| 20260503005015 | 12 | 0 | 0.0 | 0.0 | 0.00 | 1.40 | 0.00 | 92 | 1015.5 |
| 20260503004535 | 12 | 0 | 0.0 | 1.6 | 0.00 | 1.40 | 0.00 | 93 | 1015.5 |
| 20260503004016 | 12 | 0 | 0.0 | 1.6 | 0.00 | 1.40 | 0.00 | 93 | 1015.6 |
| 20260503003516 | 12 | 0 | 0.0 | 0.0 | 0.00 | 1.40 | 0.00 | 93 | 1015.6 |
| 20260503003042 | 12 | 0 | 0.0 | 0.0 | 0.00 | 1.40 | 0.00 | 93 | 1015.6 |
| 20260503002516 | 12 | 0 | 0.0 | 0.0 | 0.00 | 1.40 | 0.00 | 93 | 1015.7 |
| 20260503002016 | 12 | 0 | 0.0 | 0.0 | 0.00 | 1.40 | 0.00 | 93 | 1015.7 |
| 20260503001540 | 12 | 0 | 0.0 | 0.0 | 0.00 | 1.40 | 0.00 | 93 | 1015.7 |
| 20260503001016 | 12 | 0 | 0.0 | 0.0 | 0.00 | 1.40 | 0.00 | 93 | 1015.7 |
| 20260503000518 | 12 | 0 | 0.0 | 0.0 | 0.00 | 1.40 | 0.00 | 93 | 1015.7 |
| 20260503000034 | 12 | 0 | 0.0 | 0.0 | 0.00 | 1.40 | 0.00 | 93 | 1015.7 |
| 20260502235515 | 12 | 0 | 0.0 | 1.6 | 0.00 | 1.40 | 0.00 | 93 | 1015.8 |
| 20260502235015 | 12 | 0 | 0.0 | 1.6 | 0.00 | 1.40 | 0.00 | 93 | 1015.9 |
| 20260502234544 | 12 | 0 | 0.0 | 1.6 | 0.00 | 1.40 | 0.00 | 93 | 1015.9 |
| 20260502234016 | 12 | 0 | 0.0 | 4.8 | 0.00 | 1.40 | 0.00 | 93 | 1016.0 |
| 20260502233513 | 12 | 0 | 0.0 | 4.8 | 0.00 | 1.40 | 0.00 | 93 | 1016.0 |
| 20260502233039 | 12 | 0 | 0.0 | 4.8 | 0.00 | 1.40 | 0.00 | 93 | 1016.2 |
| 20260502232517 | 12 | 0 | 0.0 | 4.8 | 0.00 | 1.40 | 0.00 | 93 | 1016.1 |
| 20260502232014 | 12 | 0 | 0.0 | 4.8 | 0.00 | 1.40 | 0.00 | 93 | 1016.0 |
| 20260502231529 | 12 | 151 | 1.6 | 4.8 | 0.00 | 1.40 | 0.00 | 93 | 1016.1 |
| 20260502231015 | 12 | 151 | 1.6 | 8.0 | 0.00 | 1.40 | 0.00 | 93 | 1016.1 |
| 20260502230516 | 12 | 0 | 0.0 | 9.7 | 0.00 | 1.40 | 0.00 | 93 | 1016.1 |
| 20260502230034 | 12 | 152 | 3.2 | 9.7 | 0.00 | 1.40 | 0.00 | 93 | 1016.2 |
| 20260502225511 | 12 | 190 | 0.0 | 0.0 | 0.00 | 1.40 | 0.00 | 93 | 1016.2 |
| 20260502225014 | 12 | 0 | 0.0 | 0.0 | 0.00 | 1.40 | 0.00 | 93 | 1016.1 |
| 20260502224540 | 12 | 0 | 0.0 | 0.0 | 0.00 | 1.40 | 0.00 | 93 | 1016.1 |
| 20260502224014 | 12 | 0 | 0.0 | 0.0 | 0.00 | 1.40 | 0.00 | 93 | 1016.1 |
| 20260502223513 | 12 | 0 | 0.0 | 0.0 | 0.00 | 1.40 | 0.00 | 93 | 1016.2 |
| 20260502223039 | 12 | 0 | 0.0 | 0.0 | 0.00 | 1.40 | 0.00 | 93 | 1016.4 |
| 20260502222514 | 12 | 0 | 0.0 | 0.0 | 0.00 | 1.40 | 0.00 | 93 | 1016.2 |
| 20260502222015 | 12 | 0 | 0.0 | 0.0 | 0.00 | 1.40 | 0.00 | 93 | 1016.2 |
| 20260502221529 | 12 | 0 | 0.0 | 0.0 | 0.00 | 1.40 | 0.00 | 93 | 1016.3 |
| 20260502221012 | 12 | 0 | 0.0 | 0.0 | 0.00 | 1.40 | 0.00 | 92 | 1016.4 |
| 20260502220512 | 12 | 0 | 0.0 | 0.0 | 0.00 | 1.40 | 0.00 | 92 | 1016.4 |
| 20260502220030 | 12 | 0 | 0.0 | 0.0 | 0.00 | 1.40 | 0.00 | 92 | 1016.4 |
| 20260502215514 | 12 | 0 | 0.0 | 0.0 | 0.00 | 1.40 | 1.40 | 92 | 1016.5 |
| 20260502215016 | 12 | 0 | 0.0 | 0.0 | 0.00 | 1.40 | 1.40 | 93 | 1016.6 |
| 20260502214530 | 12 | 0 | 0.0 | 0.0 | 0.00 | 1.40 | 1.40 | 93 | 1016.6 |
| 20260502214019 | 12 | 0 | 0.0 | 0.0 | 0.00 | 1.40 | 1.40 | 92 | 1016.4 |
| 20260502213514 | 12 | 0 | 0.0 | 0.0 | 0.00 | 1.40 | 1.40 | 92 | 1016.4 |
| 20260502213032 | 12 | 0 | 0.0 | 1.6 | 0.00 | 1.40 | 1.40 | 92 | 1016.6 |
| 20260502212514 | 12 | 0 | 0.0 | 1.6 | 0.00 | 1.40 | 1.40 | 92 | 1016.5 |
| 20260502212014 | 12 | 0 | 0.0 | 3.2 | 0.00 | 1.40 | 1.40 | 92 | 1016.4 |
| 20260502211534 | 12 | 0 | 0.0 | 3.2 | 0.00 | 1.40 | 1.40 | 92 | 1016.3 |
| 20260502211015 | 12 | 190 | 0.0 | 3.2 | 0.00 | 1.40 | 1.40 | 92 | 1016.3 |
| 20260502210513 | 12 | 0 | 0.0 | 0.0 | 0.00 | 1.40 | 1.40 | 92 | 1016.3 |
| 20260502210037 | 12 | 0 | 0.0 | 1.6 | 0.00 | 1.40 | 1.40 | 92 | 1016.4 |
| 20260502205515 | 12 | 0 | 0.0 | 1.6 | 0.00 | 1.40 | 1.40 | 92 | 1016.2 |
| 20260502205014 | 12 | 0 | 0.0 | 1.6 | 0.00 | 1.40 | 1.40 | 92 | 1016.1 |
| 20260502204531 | 12 | 0 | 0.0 | 0.0 | 0.00 | 1.40 | 1.40 | 92 | 1016.1 |
| 20260502204013 | 12 | 0 | 0.0 | 0.0 | 0.00 | 1.40 | 1.40 | 92 | 1016.1 |
| 20260502203518 | 12 | 0 | 0.0 | 0.0 | 0.00 | 1.40 | 1.40 | 92 | 1015.9 |